sensor_id;sensor_type;location;lat;lon;timestamp;P1;durP1;ratioP1;P2;durP2;ratioP2
8568;SDS011;4322;51.104;-4.162;2023-04-16T00:00:07;6.63;;;6.33;;
8568;SDS011;4322;51.104;-4.162;2023-04-16T00:02:35;6.27;;;5.97;;
8568;SDS011;4322;51.104;-4.162;2023-04-16T00:05:03;6.53;;;6.23;;
8568;SDS011;4322;51.104;-4.162;2023-04-16T00:07:32;6.50;;;6.20;;
8568;SDS011;4322;51.104;-4.162;2023-04-16T00:10:00;6.40;;;6.10;;
8568;SDS011;4322;51.104;-4.162;2023-04-16T00:12:28;5.60;;;5.40;;
8568;SDS011;4322;51.104;-4.162;2023-04-16T00:15:00;6.03;;;5.73;;
8568;SDS011;4322;51.104;-4.162;2023-04-16T00:17:28;5.63;;;5.43;;
8568;SDS011;4322;51.104;-4.162;2023-04-16T00:19:55;5.33;;;5.13;;
8568;SDS011;4322;51.104;-4.162;2023-04-16T00:22:23;5.73;;;5.53;;
8568;SDS011;4322;51.104;-4.162;2023-04-16T00:24:53;5.30;;;5.10;;
8568;SDS011;4322;51.104;-4.162;2023-04-16T00:27:20;6.00;;;5.70;;
8568;SDS011;4322;51.104;-4.162;2023-04-16T00:29:48;5.40;;;5.20;;
8568;SDS011;4322;51.104;-4.162;2023-04-16T00:32:16;5.13;;;4.93;;
8568;SDS011;4322;51.104;-4.162;2023-04-16T00:34:44;5.47;;;5.27;;
8568;SDS011;4322;51.104;-4.162;2023-04-16T00:37:12;5.67;;;5.47;;
8568;SDS011;4322;51.104;-4.162;2023-04-16T00:39:39;5.50;;;5.30;;
8568;SDS011;4322;51.104;-4.162;2023-04-16T00:42:08;5.03;;;4.83;;
8568;SDS011;4322;51.104;-4.162;2023-04-16T00:44:36;5.10;;;4.90;;
8568;SDS011;4322;51.104;-4.162;2023-04-16T00:47:08;5.10;;;4.90;;
8568;SDS011;4322;51.104;-4.162;2023-04-16T00:49:36;5.00;;;4.80;;
8568;SDS011;4322;51.104;-4.162;2023-04-16T00:52:04;4.70;;;4.50;;
8568;SDS011;4322;51.104;-4.162;2023-04-16T00:54:32;4.43;;;4.23;;
8568;SDS011;4322;51.104;-4.162;2023-04-16T00:57:00;4.90;;;4.70;;
8568;SDS011;4322;51.104;-4.162;2023-04-16T00:59:30;4.90;;;4.70;;
8568;SDS011;4322;51.104;-4.162;2023-04-16T01:01:58;4.67;;;4.47;;
8568;SDS011;4322;51.104;-4.162;2023-04-16T01:04:27;4.70;;;4.50;;
8568;SDS011;4322;51.104;-4.162;2023-04-16T01:06:56;4.80;;;4.60;;
8568;SDS011;4322;51.104;-4.162;2023-04-16T01:09:24;4.80;;;4.60;;
8568;SDS011;4322;51.104;-4.162;2023-04-16T01:11:51;4.67;;;4.47;;
8568;SDS011;4322;51.104;-4.162;2023-04-16T01:14:19;4.60;;;4.40;;
8568;SDS011;4322;51.104;-4.162;2023-04-16T01:16:48;4.63;;;4.43;;
8568;SDS011;4322;51.104;-4.162;2023-04-16T01:19:16;4.67;;;4.47;;
8568;SDS011;4322;51.104;-4.162;2023-04-16T01:21:45;4.47;;;4.27;;
8568;SDS011;4322;51.104;-4.162;2023-04-16T01:24:13;4.43;;;4.23;;
8568;SDS011;4322;51.104;-4.162;2023-04-16T01:26:41;4.50;;;4.30;;
8568;SDS011;4322;51.104;-4.162;2023-04-16T01:29:09;4.37;;;4.17;;
8568;SDS011;4322;51.104;-4.162;2023-04-16T01:31:36;4.50;;;4.30;;
8568;SDS011;4322;51.104;-4.162;2023-04-16T01:34:04;4.50;;;4.30;;
8568;SDS011;4322;51.104;-4.162;2023-04-16T01:36:32;4.60;;;4.40;;
8568;SDS011;4322;51.104;-4.162;2023-04-16T01:39:01;4.90;;;4.70;;
8568;SDS011;4322;51.104;-4.162;2023-04-16T01:41:30;4.47;;;4.27;;
8568;SDS011;4322;51.104;-4.162;2023-04-16T01:43:58;4.30;;;4.10;;
8568;SDS011;4322;51.104;-4.162;2023-04-16T01:46:26;4.80;;;4.60;;
8568;SDS011;4322;51.104;-4.162;2023-04-16T01:48:54;4.87;;;4.67;;
8568;SDS011;4322;51.104;-4.162;2023-04-16T01:51:22;4.80;;;4.60;;
8568;SDS011;4322;51.104;-4.162;2023-04-16T01:53:49;4.67;;;4.47;;
8568;SDS011;4322;51.104;-4.162;2023-04-16T01:56:19;4.80;;;4.60;;
8568;SDS011;4322;51.104;-4.162;2023-04-16T01:58:46;4.67;;;4.47;;
8568;SDS011;4322;51.104;-4.162;2023-04-16T02:01:14;4.60;;;4.40;;
8568;SDS011;4322;51.104;-4.162;2023-04-16T02:03:42;4.60;;;4.40;;
8568;SDS011;4322;51.104;-4.162;2023-04-16T02:06:10;4.63;;;4.43;;
8568;SDS011;4322;51.104;-4.162;2023-04-16T02:08:38;4.33;;;4.13;;
8568;SDS011;4322;51.104;-4.162;2023-04-16T02:11:06;4.53;;;4.33;;
8568;SDS011;4322;51.104;-4.162;2023-04-16T02:13:36;4.80;;;4.60;;
8568;SDS011;4322;51.104;-4.162;2023-04-16T02:16:04;4.67;;;4.47;;
8568;SDS011;4322;51.104;-4.162;2023-04-16T02:18:32;4.60;;;4.40;;
8568;SDS011;4322;51.104;-4.162;2023-04-16T02:20:59;4.83;;;4.63;;
8568;SDS011;4322;51.104;-4.162;2023-04-16T02:23:27;4.50;;;4.30;;
8568;SDS011;4322;51.104;-4.162;2023-04-16T02:28:30;4.70;;;4.50;;
8568;SDS011;4322;51.104;-4.162;2023-04-16T02:30:59;4.60;;;4.40;;
8568;SDS011;4322;51.104;-4.162;2023-04-16T02:33:26;4.70;;;4.50;;
8568;SDS011;4322;51.104;-4.162;2023-04-16T02:35:54;4.70;;;4.50;;
8568;SDS011;4322;51.104;-4.162;2023-04-16T02:38:22;4.90;;;4.70;;
8568;SDS011;4322;51.104;-4.162;2023-04-16T02:40:50;4.30;;;4.10;;
8568;SDS011;4322;51.104;-4.162;2023-04-16T02:43:18;4.60;;;4.40;;
8568;SDS011;4322;51.104;-4.162;2023-04-16T02:45:45;4.63;;;4.43;;
8568;SDS011;4322;51.104;-4.162;2023-04-16T02:48:15;4.70;;;4.50;;
8568;SDS011;4322;51.104;-4.162;2023-04-16T02:50:46;4.70;;;4.50;;
8568;SDS011;4322;51.104;-4.162;2023-04-16T02:53:14;4.10;;;3.90;;
8568;SDS011;4322;51.104;-4.162;2023-04-16T02:55:49;4.60;;;4.40;;
8568;SDS011;4322;51.104;-4.162;2023-04-16T02:58:19;4.73;;;4.53;;
8568;SDS011;4322;51.104;-4.162;2023-04-16T03:00:46;4.20;;;4.00;;
8568;SDS011;4322;51.104;-4.162;2023-04-16T03:03:16;4.63;;;4.43;;
8568;SDS011;4322;51.104;-4.162;2023-04-16T03:05:44;4.37;;;4.17;;
8568;SDS011;4322;51.104;-4.162;2023-04-16T03:08:13;4.67;;;4.47;;
8568;SDS011;4322;51.104;-4.162;2023-04-16T03:10:41;4.60;;;4.40;;
8568;SDS011;4322;51.104;-4.162;2023-04-16T03:13:09;4.67;;;4.47;;
8568;SDS011;4322;51.104;-4.162;2023-04-16T03:15:36;4.53;;;4.33;;
8568;SDS011;4322;51.104;-4.162;2023-04-16T03:18:04;4.80;;;4.60;;
8568;SDS011;4322;51.104;-4.162;2023-04-16T03:20:33;4.40;;;4.20;;
8568;SDS011;4322;51.104;-4.162;2023-04-16T03:23:01;4.30;;;4.10;;
8568;SDS011;4322;51.104;-4.162;2023-04-16T03:25:29;4.60;;;4.40;;
8568;SDS011;4322;51.104;-4.162;2023-04-16T03:27:57;4.30;;;4.10;;
8568;SDS011;4322;51.104;-4.162;2023-04-16T03:30:24;4.30;;;4.10;;
8568;SDS011;4322;51.104;-4.162;2023-04-16T03:32:52;4.00;;;3.83;;
8568;SDS011;4322;51.104;-4.162;2023-04-16T03:35:21;4.20;;;4.00;;
8568;SDS011;4322;51.104;-4.162;2023-04-16T03:37:50;4.20;;;4.00;;
8568;SDS011;4322;51.104;-4.162;2023-04-16T03:40:17;4.53;;;4.33;;
8568;SDS011;4322;51.104;-4.162;2023-04-16T03:42:45;4.50;;;4.30;;
8568;SDS011;4322;51.104;-4.162;2023-04-16T03:45:13;4.40;;;4.20;;
8568;SDS011;4322;51.104;-4.162;2023-04-16T03:47:41;4.20;;;4.00;;
8568;SDS011;4322;51.104;-4.162;2023-04-16T03:50:11;4.63;;;4.43;;
8568;SDS011;4322;51.104;-4.162;2023-04-16T03:52:39;4.70;;;4.50;;
8568;SDS011;4322;51.104;-4.162;2023-04-16T03:55:08;4.50;;;4.30;;
8568;SDS011;4322;51.104;-4.162;2023-04-16T03:57:36;4.47;;;4.27;;
8568;SDS011;4322;51.104;-4.162;2023-04-16T04:00:04;4.60;;;4.40;;
8568;SDS011;4322;51.104;-4.162;2023-04-16T04:02:32;4.60;;;4.40;;
8568;SDS011;4322;51.104;-4.162;2023-04-16T04:05:00;4.53;;;4.33;;
8568;SDS011;4322;51.104;-4.162;2023-04-16T04:07:28;4.77;;;4.57;;
8568;SDS011;4322;51.104;-4.162;2023-04-16T04:09:56;4.73;;;4.53;;
8568;SDS011;4322;51.104;-4.162;2023-04-16T04:12:25;4.70;;;4.50;;
8568;SDS011;4322;51.104;-4.162;2023-04-16T04:14:52;4.57;;;4.37;;
8568;SDS011;4322;51.104;-4.162;2023-04-16T04:17:23;4.47;;;4.27;;
8568;SDS011;4322;51.104;-4.162;2023-04-16T04:19:51;4.80;;;4.60;;
8568;SDS011;4322;51.104;-4.162;2023-04-16T04:22:25;4.83;;;4.63;;
8568;SDS011;4322;51.104;-4.162;2023-04-16T04:24:53;4.70;;;4.50;;
8568;SDS011;4322;51.104;-4.162;2023-04-16T04:27:21;4.77;;;4.57;;
8568;SDS011;4322;51.104;-4.162;2023-04-16T04:29:50;4.87;;;4.67;;
8568;SDS011;4322;51.104;-4.162;2023-04-16T04:32:18;4.80;;;4.60;;
8568;SDS011;4322;51.104;-4.162;2023-04-16T04:34:50;4.70;;;4.50;;
8568;SDS011;4322;51.104;-4.162;2023-04-16T04:37:18;4.83;;;4.63;;
8568;SDS011;4322;51.104;-4.162;2023-04-16T04:39:46;4.87;;;4.67;;
8568;SDS011;4322;51.104;-4.162;2023-04-16T04:42:13;5.20;;;5.00;;
8568;SDS011;4322;51.104;-4.162;2023-04-16T04:44:41;5.00;;;4.80;;
8568;SDS011;4322;51.104;-4.162;2023-04-16T04:47:11;4.97;;;4.77;;
8568;SDS011;4322;51.104;-4.162;2023-04-16T04:49:39;5.30;;;5.10;;
8568;SDS011;4322;51.104;-4.162;2023-04-16T04:52:07;4.70;;;4.50;;
8568;SDS011;4322;51.104;-4.162;2023-04-16T04:54:35;4.90;;;4.70;;
8568;SDS011;4322;51.104;-4.162;2023-04-16T04:57:06;4.80;;;4.60;;
8568;SDS011;4322;51.104;-4.162;2023-04-16T04:59:34;4.93;;;4.73;;
8568;SDS011;4322;51.104;-4.162;2023-04-16T05:02:02;4.60;;;4.40;;
8568;SDS011;4322;51.104;-4.162;2023-04-16T05:04:31;4.47;;;4.27;;
8568;SDS011;4322;51.104;-4.162;2023-04-16T05:06:59;4.67;;;4.47;;
8568;SDS011;4322;51.104;-4.162;2023-04-16T05:09:27;4.60;;;4.40;;
8568;SDS011;4322;51.104;-4.162;2023-04-16T05:11:55;4.77;;;4.57;;
8568;SDS011;4322;51.104;-4.162;2023-04-16T05:14:23;4.70;;;4.50;;
8568;SDS011;4322;51.104;-4.162;2023-04-16T05:16:51;4.33;;;4.13;;
8568;SDS011;4322;51.104;-4.162;2023-04-16T05:19:19;4.40;;;4.20;;
8568;SDS011;4322;51.104;-4.162;2023-04-16T05:21:48;4.20;;;4.00;;
8568;SDS011;4322;51.104;-4.162;2023-04-16T05:24:16;4.40;;;4.20;;
8568;SDS011;4322;51.104;-4.162;2023-04-16T05:26:44;4.30;;;4.10;;
8568;SDS011;4322;51.104;-4.162;2023-04-16T05:29:12;3.67;;;3.57;;
8568;SDS011;4322;51.104;-4.162;2023-04-16T05:31:40;4.13;;;3.93;;
8568;SDS011;4322;51.104;-4.162;2023-04-16T05:34:07;3.77;;;3.67;;
8568;SDS011;4322;51.104;-4.162;2023-04-16T05:36:35;3.80;;;3.70;;
8568;SDS011;4322;51.104;-4.162;2023-04-16T05:39:05;3.40;;;3.30;;
8568;SDS011;4322;51.104;-4.162;2023-04-16T05:41:33;3.40;;;3.30;;
8568;SDS011;4322;51.104;-4.162;2023-04-16T05:44:01;3.70;;;3.60;;
8568;SDS011;4322;51.104;-4.162;2023-04-16T05:46:28;3.60;;;3.50;;
8568;SDS011;4322;51.104;-4.162;2023-04-16T05:48:56;3.60;;;3.50;;
8568;SDS011;4322;51.104;-4.162;2023-04-16T05:51:24;4.10;;;3.90;;
8568;SDS011;4322;51.104;-4.162;2023-04-16T05:53:53;4.10;;;3.90;;
8568;SDS011;4322;51.104;-4.162;2023-04-16T05:56:22;3.83;;;3.73;;
8568;SDS011;4322;51.104;-4.162;2023-04-16T05:58:50;4.13;;;3.93;;
8568;SDS011;4322;51.104;-4.162;2023-04-16T06:01:18;3.90;;;3.80;;
8568;SDS011;4322;51.104;-4.162;2023-04-16T06:03:46;3.77;;;3.67;;
8568;SDS011;4322;51.104;-4.162;2023-04-16T06:06:17;3.90;;;3.80;;
8568;SDS011;4322;51.104;-4.162;2023-04-16T06:08:48;3.60;;;3.50;;
8568;SDS011;4322;51.104;-4.162;2023-04-16T06:11:15;3.80;;;3.70;;
8568;SDS011;4322;51.104;-4.162;2023-04-16T06:13:45;4.20;;;4.00;;
8568;SDS011;4322;51.104;-4.162;2023-04-16T06:16:12;4.10;;;3.90;;
8568;SDS011;4322;51.104;-4.162;2023-04-16T06:18:40;4.30;;;4.10;;
8568;SDS011;4322;51.104;-4.162;2023-04-16T06:21:08;4.43;;;4.23;;
8568;SDS011;4322;51.104;-4.162;2023-04-16T06:23:36;4.30;;;4.10;;
8568;SDS011;4322;51.104;-4.162;2023-04-16T06:26:04;4.37;;;4.17;;
8568;SDS011;4322;51.104;-4.162;2023-04-16T06:28:32;4.23;;;4.03;;
8568;SDS011;4322;51.104;-4.162;2023-04-16T06:31:01;4.37;;;4.17;;
8568;SDS011;4322;51.104;-4.162;2023-04-16T06:33:29;3.87;;;3.77;;
8568;SDS011;4322;51.104;-4.162;2023-04-16T06:35:56;3.90;;;3.80;;
8568;SDS011;4322;51.104;-4.162;2023-04-16T06:38:24;3.80;;;3.70;;
8568;SDS011;4322;51.104;-4.162;2023-04-16T06:40:52;4.33;;;4.13;;
8568;SDS011;4322;51.104;-4.162;2023-04-16T06:43:20;4.17;;;3.97;;
8568;SDS011;4322;51.104;-4.162;2023-04-16T06:45:48;4.73;;;4.53;;
8568;SDS011;4322;51.104;-4.162;2023-04-16T06:48:17;4.60;;;4.40;;
8568;SDS011;4322;51.104;-4.162;2023-04-16T06:50:45;4.70;;;4.50;;
8568;SDS011;4322;51.104;-4.162;2023-04-16T06:53:12;5.20;;;5.00;;
8568;SDS011;4322;51.104;-4.162;2023-04-16T06:55:40;4.80;;;4.60;;
8568;SDS011;4322;51.104;-4.162;2023-04-16T06:58:08;5.17;;;4.97;;
8568;SDS011;4322;51.104;-4.162;2023-04-16T07:00:36;4.90;;;4.70;;
8568;SDS011;4322;51.104;-4.162;2023-04-16T07:03:04;5.17;;;4.97;;
8568;SDS011;4322;51.104;-4.162;2023-04-16T07:05:34;5.40;;;5.20;;
8568;SDS011;4322;51.104;-4.162;2023-04-16T07:08:01;5.53;;;5.33;;
8568;SDS011;4322;51.104;-4.162;2023-04-16T07:10:29;5.60;;;5.40;;
8568;SDS011;4322;51.104;-4.162;2023-04-16T07:12:57;5.00;;;4.80;;
8568;SDS011;4322;51.104;-4.162;2023-04-16T07:15:26;5.60;;;5.40;;
8568;SDS011;4322;51.104;-4.162;2023-04-16T07:17:54;5.53;;;5.33;;
8568;SDS011;4322;51.104;-4.162;2023-04-16T07:20:27;6.20;;;5.90;;
8568;SDS011;4322;51.104;-4.162;2023-04-16T07:22:56;6.40;;;6.10;;
8568;SDS011;4322;51.104;-4.162;2023-04-16T07:25:24;5.60;;;5.40;;
8568;SDS011;4322;51.104;-4.162;2023-04-16T07:27:53;6.67;;;6.37;;
8568;SDS011;4322;51.104;-4.162;2023-04-16T07:30:20;6.37;;;6.07;;
8568;SDS011;4322;51.104;-4.162;2023-04-16T07:32:49;6.60;;;6.30;;
8568;SDS011;4322;51.104;-4.162;2023-04-16T07:35:17;6.07;;;5.77;;
8568;SDS011;4322;51.104;-4.162;2023-04-16T07:37:45;6.07;;;5.77;;
8568;SDS011;4322;51.104;-4.162;2023-04-16T07:40:18;6.13;;;5.83;;
8568;SDS011;4322;51.104;-4.162;2023-04-16T07:42:47;5.97;;;5.67;;
8568;SDS011;4322;51.104;-4.162;2023-04-16T07:45:14;5.60;;;5.40;;
8568;SDS011;4322;51.104;-4.162;2023-04-16T07:47:42;6.10;;;5.80;;
8568;SDS011;4322;51.104;-4.162;2023-04-16T07:50:10;6.10;;;5.80;;
8568;SDS011;4322;51.104;-4.162;2023-04-16T07:52:38;6.07;;;5.77;;
8568;SDS011;4322;51.104;-4.162;2023-04-16T07:55:07;6.53;;;6.23;;
8568;SDS011;4322;51.104;-4.162;2023-04-16T07:57:37;6.50;;;6.20;;
8568;SDS011;4322;51.104;-4.162;2023-04-16T08:00:05;6.47;;;6.17;;
8568;SDS011;4322;51.104;-4.162;2023-04-16T08:02:39;6.73;;;6.43;;
8568;SDS011;4322;51.104;-4.162;2023-04-16T08:05:08;7.07;;;6.77;;
8568;SDS011;4322;51.104;-4.162;2023-04-16T08:07:36;6.40;;;6.10;;
8568;SDS011;4322;51.104;-4.162;2023-04-16T08:10:04;6.43;;;6.13;;
8568;SDS011;4322;51.104;-4.162;2023-04-16T08:12:32;6.37;;;6.07;;
8568;SDS011;4322;51.104;-4.162;2023-04-16T08:15:01;6.73;;;6.43;;
8568;SDS011;4322;51.104;-4.162;2023-04-16T08:17:29;6.63;;;6.33;;
8568;SDS011;4322;51.104;-4.162;2023-04-16T08:19:58;6.67;;;6.37;;
8568;SDS011;4322;51.104;-4.162;2023-04-16T08:22:27;6.50;;;6.20;;
8568;SDS011;4322;51.104;-4.162;2023-04-16T08:24:54;5.93;;;5.63;;
8568;SDS011;4322;51.104;-4.162;2023-04-16T08:27:22;5.23;;;5.03;;
8568;SDS011;4322;51.104;-4.162;2023-04-16T08:29:50;5.63;;;5.43;;
8568;SDS011;4322;51.104;-4.162;2023-04-16T08:32:19;5.50;;;5.30;;
8568;SDS011;4322;51.104;-4.162;2023-04-16T08:34:48;6.07;;;5.77;;
8568;SDS011;4322;51.104;-4.162;2023-04-16T08:37:16;5.50;;;5.30;;
8568;SDS011;4322;51.104;-4.162;2023-04-16T08:39:43;5.67;;;5.47;;
8568;SDS011;4322;51.104;-4.162;2023-04-16T08:42:12;5.47;;;5.27;;
8568;SDS011;4322;51.104;-4.162;2023-04-16T08:44:42;5.10;;;4.90;;
8568;SDS011;4322;51.104;-4.162;2023-04-16T08:47:14;6.10;;;5.80;;
8568;SDS011;4322;51.104;-4.162;2023-04-16T08:49:44;5.50;;;5.30;;
8568;SDS011;4322;51.104;-4.162;2023-04-16T08:52:13;5.60;;;5.40;;
8568;SDS011;4322;51.104;-4.162;2023-04-16T08:54:45;6.20;;;5.90;;
8568;SDS011;4322;51.104;-4.162;2023-04-16T08:57:37;5.93;;;5.63;;
8568;SDS011;4322;51.104;-4.162;2023-04-16T09:00:06;5.93;;;5.63;;
8568;SDS011;4322;51.104;-4.162;2023-04-16T09:02:47;5.97;;;5.67;;
8568;SDS011;4322;51.104;-4.162;2023-04-16T09:05:28;5.90;;;5.60;;
8568;SDS011;4322;51.104;-4.162;2023-04-16T09:07:57;5.50;;;5.30;;
8568;SDS011;4322;51.104;-4.162;2023-04-16T09:10:25;5.00;;;4.80;;
8568;SDS011;4322;51.104;-4.162;2023-04-16T09:12:54;4.90;;;4.70;;
8568;SDS011;4322;51.104;-4.162;2023-04-16T09:15:22;5.37;;;5.17;;
8568;SDS011;4322;51.104;-4.162;2023-04-16T09:17:50;5.20;;;5.00;;
8568;SDS011;4322;51.104;-4.162;2023-04-16T09:20:18;5.43;;;5.23;;
8568;SDS011;4322;51.104;-4.162;2023-04-16T09:22:48;5.00;;;4.80;;
8568;SDS011;4322;51.104;-4.162;2023-04-16T09:25:16;5.77;;;5.53;;
8568;SDS011;4322;51.104;-4.162;2023-04-16T09:27:44;5.27;;;5.07;;
8568;SDS011;4322;51.104;-4.162;2023-04-16T09:30:19;5.27;;;5.07;;
8568;SDS011;4322;51.104;-4.162;2023-04-16T09:32:48;4.90;;;4.70;;
8568;SDS011;4322;51.104;-4.162;2023-04-16T09:35:17;4.70;;;4.50;;
8568;SDS011;4322;51.104;-4.162;2023-04-16T09:37:56;4.73;;;4.53;;
8568;SDS011;4322;51.104;-4.162;2023-04-16T09:40:24;4.47;;;4.27;;
8568;SDS011;4322;51.104;-4.162;2023-04-16T09:42:55;4.20;;;4.00;;
8568;SDS011;4322;51.104;-4.162;2023-04-16T09:45:23;4.10;;;3.90;;
8568;SDS011;4322;51.104;-4.162;2023-04-16T09:47:51;3.60;;;3.50;;
8568;SDS011;4322;51.104;-4.162;2023-04-16T09:50:19;4.20;;;4.00;;
8568;SDS011;4322;51.104;-4.162;2023-04-16T09:52:48;4.13;;;3.93;;
8568;SDS011;4322;51.104;-4.162;2023-04-16T09:55:17;3.50;;;3.40;;
8568;SDS011;4322;51.104;-4.162;2023-04-16T09:57:48;3.87;;;3.77;;
8568;SDS011;4322;51.104;-4.162;2023-04-16T10:00:24;3.67;;;3.57;;
8568;SDS011;4322;51.104;-4.162;2023-04-16T10:03:01;3.63;;;3.53;;
8568;SDS011;4322;51.104;-4.162;2023-04-16T10:05:30;3.60;;;3.50;;
8568;SDS011;4322;51.104;-4.162;2023-04-16T10:07:59;3.47;;;3.37;;
8568;SDS011;4322;51.104;-4.162;2023-04-16T10:10:28;3.80;;;3.70;;
8568;SDS011;4322;51.104;-4.162;2023-04-16T10:12:56;4.10;;;3.90;;
8568;SDS011;4322;51.104;-4.162;2023-04-16T10:15:24;3.77;;;3.67;;
8568;SDS011;4322;51.104;-4.162;2023-04-16T10:17:57;3.70;;;3.60;;
8568;SDS011;4322;51.104;-4.162;2023-04-16T10:20:28;3.40;;;3.30;;
8568;SDS011;4322;51.104;-4.162;2023-04-16T10:22:56;3.40;;;3.30;;
8568;SDS011;4322;51.104;-4.162;2023-04-16T10:25:24;3.57;;;3.47;;
8568;SDS011;4322;51.104;-4.162;2023-04-16T10:27:53;4.10;;;3.90;;
8568;SDS011;4322;51.104;-4.162;2023-04-16T10:30:22;4.00;;;3.87;;
8568;SDS011;4322;51.104;-4.162;2023-04-16T10:32:50;4.30;;;4.10;;
8568;SDS011;4322;51.104;-4.162;2023-04-16T10:35:18;4.30;;;4.10;;
8568;SDS011;4322;51.104;-4.162;2023-04-16T10:37:46;4.67;;;4.47;;
8568;SDS011;4322;51.104;-4.162;2023-04-16T10:40:21;4.47;;;4.27;;
8568;SDS011;4322;51.104;-4.162;2023-04-16T10:42:56;4.40;;;4.20;;
8568;SDS011;4322;51.104;-4.162;2023-04-16T10:45:30;4.30;;;4.10;;
8568;SDS011;4322;51.104;-4.162;2023-04-16T10:48:17;4.80;;;4.60;;
8568;SDS011;4322;51.104;-4.162;2023-04-16T10:51:22;4.60;;;4.40;;
8568;SDS011;4322;51.104;-4.162;2023-04-16T10:53:53;3.70;;;3.60;;
8568;SDS011;4322;51.104;-4.162;2023-04-16T10:56:39;4.20;;;4.00;;
8568;SDS011;4322;51.104;-4.162;2023-04-16T10:59:21;3.90;;;3.80;;
8568;SDS011;4322;51.104;-4.162;2023-04-16T11:01:50;4.10;;;3.90;;
8568;SDS011;4322;51.104;-4.162;2023-04-16T11:04:25;4.50;;;4.30;;
8568;SDS011;4322;51.104;-4.162;2023-04-16T11:07:05;4.40;;;4.20;;
8568;SDS011;4322;51.104;-4.162;2023-04-16T11:09:51;4.50;;;4.30;;
8568;SDS011;4322;51.104;-4.162;2023-04-16T11:12:20;4.20;;;4.00;;
8568;SDS011;4322;51.104;-4.162;2023-04-16T11:14:50;4.30;;;4.10;;
8568;SDS011;4322;51.104;-4.162;2023-04-16T11:17:18;5.10;;;4.90;;
8568;SDS011;4322;51.104;-4.162;2023-04-16T11:19:46;5.10;;;4.90;;
8568;SDS011;4322;51.104;-4.162;2023-04-16T11:22:15;4.90;;;4.70;;
8568;SDS011;4322;51.104;-4.162;2023-04-16T11:24:43;4.60;;;4.40;;
8568;SDS011;4322;51.104;-4.162;2023-04-16T11:27:12;4.57;;;4.37;;
8568;SDS011;4322;51.104;-4.162;2023-04-16T11:29:40;4.80;;;4.60;;
8568;SDS011;4322;51.104;-4.162;2023-04-16T11:32:14;4.73;;;4.53;;
8568;SDS011;4322;51.104;-4.162;2023-04-16T11:34:46;4.50;;;4.30;;
8568;SDS011;4322;51.104;-4.162;2023-04-16T11:37:14;4.70;;;4.50;;
8568;SDS011;4322;51.104;-4.162;2023-04-16T11:39:51;4.90;;;4.70;;
8568;SDS011;4322;51.104;-4.162;2023-04-16T11:42:19;4.50;;;4.30;;
8568;SDS011;4322;51.104;-4.162;2023-04-16T11:44:51;4.10;;;3.90;;
8568;SDS011;4322;51.104;-4.162;2023-04-16T11:47:21;4.33;;;4.13;;
8568;SDS011;4322;51.104;-4.162;2023-04-16T11:49:49;5.10;;;4.90;;
8568;SDS011;4322;51.104;-4.162;2023-04-16T11:52:26;5.20;;;5.00;;
8568;SDS011;4322;51.104;-4.162;2023-04-16T11:54:55;4.67;;;4.47;;
8568;SDS011;4322;51.104;-4.162;2023-04-16T11:57:23;4.30;;;4.10;;
8568;SDS011;4322;51.104;-4.162;2023-04-16T11:59:52;4.80;;;4.60;;
8568;SDS011;4322;51.104;-4.162;2023-04-16T12:02:44;5.00;;;4.80;;
8568;SDS011;4322;51.104;-4.162;2023-04-16T12:05:27;5.17;;;4.97;;
8568;SDS011;4322;51.104;-4.162;2023-04-16T12:07:56;4.90;;;4.70;;
8568;SDS011;4322;51.104;-4.162;2023-04-16T12:10:24;4.90;;;4.70;;
8568;SDS011;4322;51.104;-4.162;2023-04-16T12:12:52;5.00;;;4.80;;
8568;SDS011;4322;51.104;-4.162;2023-04-16T12:15:20;5.00;;;4.80;;
8568;SDS011;4322;51.104;-4.162;2023-04-16T12:17:49;5.23;;;5.03;;
8568;SDS011;4322;51.104;-4.162;2023-04-16T12:20:19;5.20;;;5.00;;
8568;SDS011;4322;51.104;-4.162;2023-04-16T12:22:47;5.07;;;4.87;;
8568;SDS011;4322;51.104;-4.162;2023-04-16T12:25:16;5.03;;;4.83;;
8568;SDS011;4322;51.104;-4.162;2023-04-16T12:27:45;5.10;;;4.90;;
8568;SDS011;4322;51.104;-4.162;2023-04-16T12:30:16;5.20;;;5.00;;
8568;SDS011;4322;51.104;-4.162;2023-04-16T12:32:46;4.60;;;4.40;;
8568;SDS011;4322;51.104;-4.162;2023-04-16T12:35:27;5.33;;;5.13;;
8568;SDS011;4322;51.104;-4.162;2023-04-16T12:37:55;5.20;;;5.00;;
8568;SDS011;4322;51.104;-4.162;2023-04-16T12:40:24;5.07;;;4.87;;
8568;SDS011;4322;51.104;-4.162;2023-04-16T12:42:52;5.30;;;5.10;;
8568;SDS011;4322;51.104;-4.162;2023-04-16T12:45:20;5.03;;;4.83;;
8568;SDS011;4322;51.104;-4.162;2023-04-16T12:47:48;5.43;;;5.23;;
8568;SDS011;4322;51.104;-4.162;2023-04-16T12:50:16;5.57;;;5.37;;
8568;SDS011;4322;51.104;-4.162;2023-04-16T12:52:45;5.80;;;5.50;;
8568;SDS011;4322;51.104;-4.162;2023-04-16T12:55:13;5.50;;;5.30;;
8568;SDS011;4322;51.104;-4.162;2023-04-16T12:57:41;5.97;;;5.67;;
8568;SDS011;4322;51.104;-4.162;2023-04-16T13:00:09;5.73;;;5.53;;
8568;SDS011;4322;51.104;-4.162;2023-04-16T13:02:38;5.67;;;5.47;;
8568;SDS011;4322;51.104;-4.162;2023-04-16T13:05:06;5.87;;;5.60;;
8568;SDS011;4322;51.104;-4.162;2023-04-16T13:07:34;5.70;;;5.50;;
8568;SDS011;4322;51.104;-4.162;2023-04-16T13:10:04;6.30;;;6.00;;
8568;SDS011;4322;51.104;-4.162;2023-04-16T13:12:31;6.13;;;5.83;;
8568;SDS011;4322;51.104;-4.162;2023-04-16T13:14:59;6.30;;;6.00;;
8568;SDS011;4322;51.104;-4.162;2023-04-16T13:17:27;6.47;;;6.17;;
8568;SDS011;4322;51.104;-4.162;2023-04-16T13:19:55;6.27;;;5.97;;
8568;SDS011;4322;51.104;-4.162;2023-04-16T13:22:22;6.37;;;6.07;;
8568;SDS011;4322;51.104;-4.162;2023-04-16T13:24:50;6.30;;;6.00;;
8568;SDS011;4322;51.104;-4.162;2023-04-16T13:27:19;6.47;;;6.17;;
8568;SDS011;4322;51.104;-4.162;2023-04-16T13:29:47;6.07;;;5.77;;
8568;SDS011;4322;51.104;-4.162;2023-04-16T13:32:15;5.70;;;5.50;;
8568;SDS011;4322;51.104;-4.162;2023-04-16T13:34:44;5.83;;;5.57;;
8568;SDS011;4322;51.104;-4.162;2023-04-16T13:37:12;5.27;;;5.07;;
8568;SDS011;4322;51.104;-4.162;2023-04-16T13:39:40;5.30;;;5.10;;
8568;SDS011;4322;51.104;-4.162;2023-04-16T13:42:07;5.37;;;5.17;;
8568;SDS011;4322;51.104;-4.162;2023-04-16T13:44:37;5.67;;;5.47;;
8568;SDS011;4322;51.104;-4.162;2023-04-16T13:47:07;5.60;;;5.40;;
8568;SDS011;4322;51.104;-4.162;2023-04-16T13:49:53;5.87;;;5.63;;
8568;SDS011;4322;51.104;-4.162;2023-04-16T13:52:23;6.13;;;5.83;;
8568;SDS011;4322;51.104;-4.162;2023-04-16T13:54:50;6.57;;;6.27;;
8568;SDS011;4322;51.104;-4.162;2023-04-16T13:57:18;6.40;;;6.10;;
8568;SDS011;4322;51.104;-4.162;2023-04-16T13:59:47;6.17;;;5.87;;
8568;SDS011;4322;51.104;-4.162;2023-04-16T14:02:15;6.77;;;6.47;;
8568;SDS011;4322;51.104;-4.162;2023-04-16T14:04:43;6.30;;;6.00;;
8568;SDS011;4322;51.104;-4.162;2023-04-16T14:07:11;6.03;;;5.73;;
8568;SDS011;4322;51.104;-4.162;2023-04-16T14:09:39;6.50;;;6.20;;
8568;SDS011;4322;51.104;-4.162;2023-04-16T14:17:58;7.20;;;6.90;;
8568;SDS011;4322;51.104;-4.162;2023-04-16T14:20:26;7.47;;;7.17;;
8568;SDS011;4322;51.104;-4.162;2023-04-16T14:22:54;6.63;;;6.33;;
8568;SDS011;4322;51.104;-4.162;2023-04-16T14:25:22;6.10;;;5.80;;
8568;SDS011;4322;51.104;-4.162;2023-04-16T14:27:53;6.73;;;6.43;;
8568;SDS011;4322;51.104;-4.162;2023-04-16T14:33:25;6.77;;;6.47;;
8568;SDS011;4322;51.104;-4.162;2023-04-16T14:36:10;6.20;;;5.90;;
8568;SDS011;4322;51.104;-4.162;2023-04-16T14:41:30;5.60;;;5.40;;
8568;SDS011;4322;51.104;-4.162;2023-04-16T14:43:58;6.37;;;6.07;;
8568;SDS011;4322;51.104;-4.162;2023-04-16T14:46:26;6.20;;;5.90;;
8568;SDS011;4322;51.104;-4.162;2023-04-16T14:48:55;6.23;;;5.93;;
8568;SDS011;4322;51.104;-4.162;2023-04-16T14:51:23;6.00;;;5.70;;
8568;SDS011;4322;51.104;-4.162;2023-04-16T14:53:51;5.70;;;5.50;;
8568;SDS011;4322;51.104;-4.162;2023-04-16T14:56:19;6.00;;;5.70;;
8568;SDS011;4322;51.104;-4.162;2023-04-16T14:58:47;5.50;;;5.30;;
8568;SDS011;4322;51.104;-4.162;2023-04-16T15:01:15;5.23;;;5.03;;
8568;SDS011;4322;51.104;-4.162;2023-04-16T15:03:43;5.33;;;5.13;;
8568;SDS011;4322;51.104;-4.162;2023-04-16T15:06:12;5.67;;;5.47;;
8568;SDS011;4322;51.104;-4.162;2023-04-16T15:08:42;4.90;;;4.70;;
8568;SDS011;4322;51.104;-4.162;2023-04-16T15:11:09;5.50;;;5.30;;
8568;SDS011;4322;51.104;-4.162;2023-04-16T15:13:37;5.40;;;5.20;;
8568;SDS011;4322;51.104;-4.162;2023-04-16T15:16:05;5.13;;;4.93;;
8568;SDS011;4322;51.104;-4.162;2023-04-16T15:18:33;5.10;;;4.90;;
8568;SDS011;4322;51.104;-4.162;2023-04-16T15:21:00;4.80;;;4.60;;
8568;SDS011;4322;51.104;-4.162;2023-04-16T15:23:30;4.67;;;4.47;;
8568;SDS011;4322;51.104;-4.162;2023-04-16T15:25:57;4.50;;;4.30;;